sensor_id;sensor_type;location;lat;lon;timestamp;temperature;humidity
24146;DHT22;12308;50.948;4.706;2023-05-10T00:02:07;14.70;99.90
24146;DHT22;12308;50.948;4.706;2023-05-10T00:04:33;14.70;99.90
24146;DHT22;12308;50.948;4.706;2023-05-10T00:06:59;14.70;99.90
24146;DHT22;12308;50.948;4.706;2023-05-10T00:09:24;14.70;99.90
24146;DHT22;12308;50.948;4.706;2023-05-10T00:11:50;14.70;99.90
24146;DHT22;12308;50.948;4.706;2023-05-10T00:14:16;14.80;99.90
24146;DHT22;12308;50.948;4.706;2023-05-10T00:16:42;14.90;99.90
24146;DHT22;12308;50.948;4.706;2023-05-10T00:19:08;14.90;99.90
24146;DHT22;12308;50.948;4.706;2023-05-10T00:21:33;14.80;99.90
24146;DHT22;12308;50.948;4.706;2023-05-10T00:23:59;14.70;99.90
24146;DHT22;12308;50.948;4.706;2023-05-10T00:26:25;14.60;99.90
24146;DHT22;12308;50.948;4.706;2023-05-10T00:28:51;14.70;99.90
24146;DHT22;12308;50.948;4.706;2023-05-10T00:31:17;14.70;99.90
24146;DHT22;12308;50.948;4.706;2023-05-10T00:33:42;14.70;99.90
24146;DHT22;12308;50.948;4.706;2023-05-10T00:36:08;14.60;99.90
24146;DHT22;12308;50.948;4.706;2023-05-10T00:38:34;14.70;99.90
24146;DHT22;12308;50.948;4.706;2023-05-10T00:41:00;14.60;99.90
24146;DHT22;12308;50.948;4.706;2023-05-10T00:43:25;14.70;99.90
24146;DHT22;12308;50.948;4.706;2023-05-10T00:45:51;14.80;99.90
24146;DHT22;12308;50.948;4.706;2023-05-10T00:48:18;14.60;99.90
24146;DHT22;12308;50.948;4.706;2023-05-10T00:50:44;14.60;99.90
24146;DHT22;12308;50.948;4.706;2023-05-10T00:53:10;14.50;99.90
24146;DHT22;12308;50.948;4.706;2023-05-10T00:55:36;14.60;99.90
24146;DHT22;12308;50.948;4.706;2023-05-10T00:58:03;14.70;99.90
24146;DHT22;12308;50.948;4.706;2023-05-10T01:00:29;14.80;99.90
24146;DHT22;12308;50.948;4.706;2023-05-10T01:02:55;14.80;99.90
24146;DHT22;12308;50.948;4.706;2023-05-10T01:05:21;14.80;99.90
24146;DHT22;12308;50.948;4.706;2023-05-10T01:07:47;14.70;99.90
24146;DHT22;12308;50.948;4.706;2023-05-10T01:10:13;14.70;99.90
24146;DHT22;12308;50.948;4.706;2023-05-10T01:12:41;14.80;99.90
24146;DHT22;12308;50.948;4.706;2023-05-10T01:15:09;14.80;99.90
24146;DHT22;12308;50.948;4.706;2023-05-10T01:17:38;14.90;99.90
24146;DHT22;12308;50.948;4.706;2023-05-10T01:20:06;14.80;99.90
24146;DHT22;12308;50.948;4.706;2023-05-10T01:35:43;14.60;99.90
24146;DHT22;12308;50.948;4.706;2023-05-10T01:38:16;14.60;99.90
24146;DHT22;12308;50.948;4.706;2023-05-10T01:43:21;14.50;99.90
24146;DHT22;12308;50.948;4.706;2023-05-10T01:46:03;14.60;99.90
24146;DHT22;12308;50.948;4.706;2023-05-10T01:48:37;14.80;99.90
24146;DHT22;12308;50.948;4.706;2023-05-10T01:51:06;14.90;99.90
24146;DHT22;12308;50.948;4.706;2023-05-10T01:53:33;15.00;99.90
24146;DHT22;12308;50.948;4.706;2023-05-10T01:56:02;14.80;99.90
24146;DHT22;12308;50.948;4.706;2023-05-10T01:58:31;14.80;99.90
24146;DHT22;12308;50.948;4.706;2023-05-10T02:01:00;14.60;99.90
24146;DHT22;12308;50.948;4.706;2023-05-10T02:03:29;14.40;99.90
24146;DHT22;12308;50.948;4.706;2023-05-10T02:05:57;14.50;99.90
24146;DHT22;12308;50.948;4.706;2023-05-10T02:08:24;14.50;99.90
24146;DHT22;12308;50.948;4.706;2023-05-10T02:10:52;14.70;99.90
24146;DHT22;12308;50.948;4.706;2023-05-10T02:13:18;14.70;99.90
24146;DHT22;12308;50.948;4.706;2023-05-10T02:15:47;14.60;99.90
24146;DHT22;12308;50.948;4.706;2023-05-10T02:18:13;14.60;99.90
24146;DHT22;12308;50.948;4.706;2023-05-10T02:20:42;14.60;99.90
24146;DHT22;12308;50.948;4.706;2023-05-10T02:23:09;14.50;99.90
24146;DHT22;12308;50.948;4.706;2023-05-10T02:25:37;14.40;99.90
24146;DHT22;12308;50.948;4.706;2023-05-10T02:28:05;14.40;99.90
24146;DHT22;12308;50.948;4.706;2023-05-10T02:30:33;14.50;99.90
24146;DHT22;12308;50.948;4.706;2023-05-10T02:33:00;14.40;99.90
24146;DHT22;12308;50.948;4.706;2023-05-10T02:35:28;14.40;99.90
24146;DHT22;12308;50.948;4.706;2023-05-10T02:37:54;14.50;99.90
24146;DHT22;12308;50.948;4.706;2023-05-10T02:40:21;14.50;99.90
24146;DHT22;12308;50.948;4.706;2023-05-10T02:42:50;14.60;99.90
24146;DHT22;12308;50.948;4.706;2023-05-10T02:45:21;14.60;99.90
24146;DHT22;12308;50.948;4.706;2023-05-10T02:47:49;14.70;99.90
24146;DHT22;12308;50.948;4.706;2023-05-10T02:50:15;14.70;99.90
24146;DHT22;12308;50.948;4.706;2023-05-10T02:52:46;14.70;99.90
24146;DHT22;12308;50.948;4.706;2023-05-10T02:55:14;14.60;99.90
24146;DHT22;12308;50.948;4.706;2023-05-10T02:57:50;14.70;99.90
24146;DHT22;12308;50.948;4.706;2023-05-10T03:00:17;14.60;99.90
24146;DHT22;12308;50.948;4.706;2023-05-10T03:02:43;14.60;99.90
24146;DHT22;12308;50.948;4.706;2023-05-10T03:05:09;14.70;99.90
24146;DHT22;12308;50.948;4.706;2023-05-10T03:07:35;14.70;99.90
24146;DHT22;12308;50.948;4.706;2023-05-10T03:10:01;14.70;99.90
24146;DHT22;12308;50.948;4.706;2023-05-10T03:15:47;14.70;99.90
24146;DHT22;12308;50.948;4.706;2023-05-10T03:18:37;14.70;99.90
24146;DHT22;12308;50.948;4.706;2023-05-10T03:21:06;14.70;99.90
24146;DHT22;12308;50.948;4.706;2023-05-10T03:23:40;14.70;99.90
24146;DHT22;12308;50.948;4.706;2023-05-10T03:26:07;14.70;99.90
24146;DHT22;12308;50.948;4.706;2023-05-10T03:28:34;14.50;99.90
24146;DHT22;12308;50.948;4.706;2023-05-10T03:31:02;14.50;99.90
24146;DHT22;12308;50.948;4.706;2023-05-10T03:33:29;14.60;99.90
24146;DHT22;12308;50.948;4.706;2023-05-10T03:35:55;14.60;99.90
24146;DHT22;12308;50.948;4.706;2023-05-10T03:38:21;14.50;99.90
24146;DHT22;12308;50.948;4.706;2023-05-10T03:40:47;14.30;99.90
24146;DHT22;12308;50.948;4.706;2023-05-10T03:43:13;14.40;99.90
24146;DHT22;12308;50.948;4.706;2023-05-10T03:45:38;14.50;99.90
24146;DHT22;12308;50.948;4.706;2023-05-10T03:48:04;14.40;99.90
24146;DHT22;12308;50.948;4.706;2023-05-10T03:50:30;14.40;99.90
24146;DHT22;12308;50.948;4.706;2023-05-10T03:52:55;14.20;99.90
24146;DHT22;12308;50.948;4.706;2023-05-10T03:55:22;14.20;99.90
24146;DHT22;12308;50.948;4.706;2023-05-10T03:57:48;14.20;99.90
24146;DHT22;12308;50.948;4.706;2023-05-10T04:00:15;14.10;99.90
24146;DHT22;12308;50.948;4.706;2023-05-10T04:02:41;14.20;99.90
24146;DHT22;12308;50.948;4.706;2023-05-10T04:05:07;14.20;99.90
24146;DHT22;12308;50.948;4.706;2023-05-10T04:07:33;14.20;99.90
24146;DHT22;12308;50.948;4.706;2023-05-10T04:09:58;14.20;99.90
24146;DHT22;12308;50.948;4.706;2023-05-10T04:12:24;14.20;99.90
24146;DHT22;12308;50.948;4.706;2023-05-10T04:14:50;14.10;99.90
24146;DHT22;12308;50.948;4.706;2023-05-10T04:17:16;14.10;99.90
24146;DHT22;12308;50.948;4.706;2023-05-10T04:19:42;14.00;99.90
24146;DHT22;12308;50.948;4.706;2023-05-10T04:22:07;13.80;99.90
24146;DHT22;12308;50.948;4.706;2023-05-10T04:24:33;13.70;99.90
24146;DHT22;12308;50.948;4.706;2023-05-10T04:26:59;13.60;99.90
24146;DHT22;12308;50.948;4.706;2023-05-10T04:29:26;13.60;99.90
24146;DHT22;12308;50.948;4.706;2023-05-10T04:31:52;13.50;99.90
24146;DHT22;12308;50.948;4.706;2023-05-10T04:34:20;13.60;99.90
24146;DHT22;12308;50.948;4.706;2023-05-10T04:36:46;13.60;99.90
24146;DHT22;12308;50.948;4.706;2023-05-10T04:39:11;13.60;99.90
24146;DHT22;12308;50.948;4.706;2023-05-10T04:41:38;13.50;99.90
24146;DHT22;12308;50.948;4.706;2023-05-10T04:44:04;13.50;99.90
24146;DHT22;12308;50.948;4.706;2023-05-10T04:46:29;13.50;99.90
24146;DHT22;12308;50.948;4.706;2023-05-10T04:48:55;13.50;99.90
24146;DHT22;12308;50.948;4.706;2023-05-10T04:51:20;13.50;99.90
24146;DHT22;12308;50.948;4.706;2023-05-10T04:53:46;13.40;99.90
24146;DHT22;12308;50.948;4.706;2023-05-10T04:56:12;13.50;99.90
24146;DHT22;12308;50.948;4.706;2023-05-10T04:58:38;13.40;99.90
24146;DHT22;12308;50.948;4.706;2023-05-10T05:01:08;13.50;99.90
24146;DHT22;12308;50.948;4.706;2023-05-10T05:03:34;13.60;99.90
24146;DHT22;12308;50.948;4.706;2023-05-10T05:05:59;13.70;99.90
24146;DHT22;12308;50.948;4.706;2023-05-10T05:08:25;13.60;99.90
24146;DHT22;12308;50.948;4.706;2023-05-10T05:10:51;13.70;99.90
24146;DHT22;12308;50.948;4.706;2023-05-10T05:13:17;13.60;99.90
24146;DHT22;12308;50.948;4.706;2023-05-10T05:15:42;13.60;99.90
24146;DHT22;12308;50.948;4.706;2023-05-10T05:18:08;13.70;99.90
24146;DHT22;12308;50.948;4.706;2023-05-10T05:20:34;13.70;99.90
24146;DHT22;12308;50.948;4.706;2023-05-10T05:23:00;13.70;99.90
24146;DHT22;12308;50.948;4.706;2023-05-10T05:25:26;13.80;99.90
24146;DHT22;12308;50.948;4.706;2023-05-10T05:27:51;13.90;99.90
24146;DHT22;12308;50.948;4.706;2023-05-10T05:30:17;13.90;99.90
24146;DHT22;12308;50.948;4.706;2023-05-10T05:32:43;14.00;99.90
24146;DHT22;12308;50.948;4.706;2023-05-10T05:35:08;14.00;99.90
24146;DHT22;12308;50.948;4.706;2023-05-10T05:37:34;14.10;99.90
24146;DHT22;12308;50.948;4.706;2023-05-10T05:40:00;14.10;99.90
24146;DHT22;12308;50.948;4.706;2023-05-10T05:42:27;14.10;99.90
24146;DHT22;12308;50.948;4.706;2023-05-10T05:44:52;14.10;99.90
24146;DHT22;12308;50.948;4.706;2023-05-10T05:47:18;14.20;99.90
24146;DHT22;12308;50.948;4.706;2023-05-10T05:49:44;14.20;99.90
24146;DHT22;12308;50.948;4.706;2023-05-10T05:52:12;14.30;99.90
24146;DHT22;12308;50.948;4.706;2023-05-10T05:54:38;14.40;99.90
24146;DHT22;12308;50.948;4.706;2023-05-10T05:57:04;14.60;99.90
24146;DHT22;12308;50.948;4.706;2023-05-10T05:59:30;14.60;99.90
24146;DHT22;12308;50.948;4.706;2023-05-10T06:01:55;14.70;99.90
24146;DHT22;12308;50.948;4.706;2023-05-10T06:04:21;14.80;99.90
24146;DHT22;12308;50.948;4.706;2023-05-10T06:06:47;14.90;99.90
24146;DHT22;12308;50.948;4.706;2023-05-10T06:09:13;15.00;99.90
24146;DHT22;12308;50.948;4.706;2023-05-10T06:11:38;14.90;99.90
24146;DHT22;12308;50.948;4.706;2023-05-10T06:14:04;15.00;99.90
24146;DHT22;12308;50.948;4.706;2023-05-10T06:16:32;15.10;99.90
24146;DHT22;12308;50.948;4.706;2023-05-10T06:18:58;15.20;99.90
24146;DHT22;12308;50.948;4.706;2023-05-10T06:21:24;15.30;99.90
24146;DHT22;12308;50.948;4.706;2023-05-10T06:23:49;15.30;99.90
24146;DHT22;12308;50.948;4.706;2023-05-10T06:26:15;15.30;99.90
24146;DHT22;12308;50.948;4.706;2023-05-10T06:28:41;15.20;99.90
24146;DHT22;12308;50.948;4.706;2023-05-10T06:31:06;15.20;99.90
24146;DHT22;12308;50.948;4.706;2023-05-10T06:33:33;15.30;99.90
24146;DHT22;12308;50.948;4.706;2023-05-10T06:35:59;15.30;99.90
24146;DHT22;12308;50.948;4.706;2023-05-10T06:38:25;15.30;99.90
24146;DHT22;12308;50.948;4.706;2023-05-10T06:40:51;15.20;99.90
24146;DHT22;12308;50.948;4.706;2023-05-10T06:43:17;15.00;99.90
24146;DHT22;12308;50.948;4.706;2023-05-10T06:45:43;15.10;99.90
24146;DHT22;12308;50.948;4.706;2023-05-10T06:48:08;15.00;99.90
24146;DHT22;12308;50.948;4.706;2023-05-10T06:50:34;15.00;99.90
24146;DHT22;12308;50.948;4.706;2023-05-10T06:53:00;14.80;99.90
24146;DHT22;12308;50.948;4.706;2023-05-10T06:55:27;14.70;99.90
24146;DHT22;12308;50.948;4.706;2023-05-10T06:57:53;14.70;99.90
24146;DHT22;12308;50.948;4.706;2023-05-10T07:00:19;14.90;99.90
24146;DHT22;12308;50.948;4.706;2023-05-10T07:02:45;15.00;99.90
24146;DHT22;12308;50.948;4.706;2023-05-10T07:05:11;15.10;99.90
24146;DHT22;12308;50.948;4.706;2023-05-10T07:07:37;15.20;99.90
24146;DHT22;12308;50.948;4.706;2023-05-10T07:10:03;15.20;99.90
24146;DHT22;12308;50.948;4.706;2023-05-10T07:12:29;15.00;99.90
24146;DHT22;12308;50.948;4.706;2023-05-10T07:14:55;15.10;99.90
24146;DHT22;12308;50.948;4.706;2023-05-10T07:17:21;15.30;99.90
24146;DHT22;12308;50.948;4.706;2023-05-10T07:19:46;15.40;99.90
24146;DHT22;12308;50.948;4.706;2023-05-10T07:22:12;15.60;99.90
24146;DHT22;12308;50.948;4.706;2023-05-10T07:24:38;15.60;99.90
24146;DHT22;12308;50.948;4.706;2023-05-10T07:27:04;15.50;99.90
24146;DHT22;12308;50.948;4.706;2023-05-10T07:29:29;15.60;99.90
24146;DHT22;12308;50.948;4.706;2023-05-10T07:31:55;15.70;99.90
24146;DHT22;12308;50.948;4.706;2023-05-10T07:34:21;15.80;99.90
24146;DHT22;12308;50.948;4.706;2023-05-10T07:36:47;15.90;99.90
24146;DHT22;12308;50.948;4.706;2023-05-10T07:39:13;15.70;99.90
24146;DHT22;12308;50.948;4.706;2023-05-10T07:41:38;15.60;99.90
24146;DHT22;12308;50.948;4.706;2023-05-10T07:44:05;15.50;99.90
24146;DHT22;12308;50.948;4.706;2023-05-10T07:46:31;15.20;99.90
24146;DHT22;12308;50.948;4.706;2023-05-10T07:48:57;15.20;99.90
24146;DHT22;12308;50.948;4.706;2023-05-10T07:51:22;15.00;99.90
24146;DHT22;12308;50.948;4.706;2023-05-10T07:53:48;15.00;99.90
24146;DHT22;12308;50.948;4.706;2023-05-10T07:58:47;14.70;99.90
24146;DHT22;12308;50.948;4.706;2023-05-10T08:01:13;14.60;99.90
24146;DHT22;12308;50.948;4.706;2023-05-10T08:03:38;14.80;99.90
24146;DHT22;12308;50.948;4.706;2023-05-10T08:06:04;14.90;99.90
24146;DHT22;12308;50.948;4.706;2023-05-10T08:08:30;14.80;99.90
24146;DHT22;12308;50.948;4.706;2023-05-10T08:10:56;14.60;99.90
24146;DHT22;12308;50.948;4.706;2023-05-10T08:13:21;14.70;99.90
24146;DHT22;12308;50.948;4.706;2023-05-10T08:15:47;14.80;99.90
24146;DHT22;12308;50.948;4.706;2023-05-10T08:18:13;14.80;99.90
24146;DHT22;12308;50.948;4.706;2023-05-10T08:20:38;14.80;99.90
24146;DHT22;12308;50.948;4.706;2023-05-10T08:23:05;14.90;99.90
24146;DHT22;12308;50.948;4.706;2023-05-10T08:25:31;15.00;99.90
24146;DHT22;12308;50.948;4.706;2023-05-10T08:27:57;15.00;99.90
24146;DHT22;12308;50.948;4.706;2023-05-10T08:30:23;15.00;99.90
24146;DHT22;12308;50.948;4.706;2023-05-10T08:32:48;15.00;99.90
24146;DHT22;12308;50.948;4.706;2023-05-10T08:35:15;15.10;99.90
24146;DHT22;12308;50.948;4.706;2023-05-10T08:37:40;15.10;99.90
24146;DHT22;12308;50.948;4.706;2023-05-10T08:40:06;15.00;99.90
24146;DHT22;12308;50.948;4.706;2023-05-10T08:42:36;15.10;99.90
24146;DHT22;12308;50.948;4.706;2023-05-10T08:45:04;15.00;99.90
24146;DHT22;12308;50.948;4.706;2023-05-10T08:47:30;15.00;99.90
24146;DHT22;12308;50.948;4.706;2023-05-10T08:49:57;15.30;99.90
24146;DHT22;12308;50.948;4.706;2023-05-10T08:52:26;15.60;99.90
24146;DHT22;12308;50.948;4.706;2023-05-10T08:54:51;15.60;99.90
24146;DHT22;12308;50.948;4.706;2023-05-10T08:57:19;15.80;99.90
24146;DHT22;12308;50.948;4.706;2023-05-10T08:59:45;15.90;99.90
24146;DHT22;12308;50.948;4.706;2023-05-10T09:02:13;16.00;99.90
24146;DHT22;12308;50.948;4.706;2023-05-10T09:04:39;15.80;99.90
24146;DHT22;12308;50.948;4.706;2023-05-10T09:07:06;15.90;99.90
24146;DHT22;12308;50.948;4.706;2023-05-10T09:09:31;15.90;99.90
24146;DHT22;12308;50.948;4.706;2023-05-10T09:11:57;16.00;99.90
24146;DHT22;12308;50.948;4.706;2023-05-10T09:14:24;15.90;99.90
24146;DHT22;12308;50.948;4.706;2023-05-10T09:16:50;15.80;99.90
24146;DHT22;12308;50.948;4.706;2023-05-10T09:19:16;15.80;99.90
24146;DHT22;12308;50.948;4.706;2023-05-10T09:21:42;15.70;99.90
24146;DHT22;12308;50.948;4.706;2023-05-10T09:24:09;15.90;99.90
24146;DHT22;12308;50.948;4.706;2023-05-10T09:26:35;16.00;99.90
24146;DHT22;12308;50.948;4.706;2023-05-10T09:29:11;15.90;99.90
24146;DHT22;12308;50.948;4.706;2023-05-10T09:31:48;15.70;99.90
24146;DHT22;12308;50.948;4.706;2023-05-10T09:34:21;15.90;99.90
24146;DHT22;12308;50.948;4.706;2023-05-10T09:36:56;16.00;99.90
24146;DHT22;12308;50.948;4.706;2023-05-10T09:39:38;15.90;99.90
24146;DHT22;12308;50.948;4.706;2023-05-10T09:42:08;15.80;99.90
24146;DHT22;12308;50.948;4.706;2023-05-10T09:44:35;15.50;99.90
24146;DHT22;12308;50.948;4.706;2023-05-10T09:47:02;15.40;99.90
24146;DHT22;12308;50.948;4.706;2023-05-10T09:49:28;15.60;99.90
24146;DHT22;12308;50.948;4.706;2023-05-10T09:52:20;15.70;99.90
24146;DHT22;12308;50.948;4.706;2023-05-10T09:54:52;15.80;99.90
24146;DHT22;12308;50.948;4.706;2023-05-10T09:57:23;15.90;99.90
24146;DHT22;12308;50.948;4.706;2023-05-10T09:59:49;16.00;99.90
24146;DHT22;12308;50.948;4.706;2023-05-10T10:02:16;15.80;99.90
24146;DHT22;12308;50.948;4.706;2023-05-10T10:04:42;15.80;99.90
24146;DHT22;12308;50.948;4.706;2023-05-10T10:07:08;15.70;99.90
24146;DHT22;12308;50.948;4.706;2023-05-10T10:09:35;15.50;99.90
24146;DHT22;12308;50.948;4.706;2023-05-10T10:12:01;15.60;99.90
24146;DHT22;12308;50.948;4.706;2023-05-10T10:14:28;15.80;99.90
24146;DHT22;12308;50.948;4.706;2023-05-10T10:16:54;16.00;99.90
24146;DHT22;12308;50.948;4.706;2023-05-10T10:19:21;15.70;99.90
24146;DHT22;12308;50.948;4.706;2023-05-10T10:21:49;16.10;99.90
24146;DHT22;12308;50.948;4.706;2023-05-10T10:24:15;16.20;99.90
24146;DHT22;12308;50.948;4.706;2023-05-10T10:26:42;16.30;99.90
24146;DHT22;12308;50.948;4.706;2023-05-10T10:29:36;16.60;99.90
24146;DHT22;12308;50.948;4.706;2023-05-10T10:32:27;16.30;99.90
24146;DHT22;12308;50.948;4.706;2023-05-10T10:34:55;16.40;99.90
24146;DHT22;12308;50.948;4.706;2023-05-10T10:37:21;16.70;99.90
24146;DHT22;12308;50.948;4.706;2023-05-10T10:39:48;16.90;99.90
24146;DHT22;12308;50.948;4.706;2023-05-10T10:42:44;16.90;99.90
24146;DHT22;12308;50.948;4.706;2023-05-10T10:45:12;17.30;99.90
24146;DHT22;12308;50.948;4.706;2023-05-10T10:47:38;17.60;99.90
24146;DHT22;12308;50.948;4.706;2023-05-10T10:50:06;17.30;99.90
24146;DHT22;12308;50.948;4.706;2023-05-10T10:52:34;17.20;99.90
24146;DHT22;12308;50.948;4.706;2023-05-10T10:57:56;17.80;99.90
24146;DHT22;12308;50.948;4.706;2023-05-10T11:00:35;17.90;99.90
24146;DHT22;12308;50.948;4.706;2023-05-10T11:03:08;18.20;99.90
24146;DHT22;12308;50.948;4.706;2023-05-10T11:13:42;19.10;99.90
24146;DHT22;12308;50.948;4.706;2023-05-10T11:16:23;19.00;99.90
24146;DHT22;12308;50.948;4.706;2023-05-10T11:21:28;18.60;99.90
24146;DHT22;12308;50.948;4.706;2023-05-10T11:23:55;18.70;99.90
24146;DHT22;12308;50.948;4.706;2023-05-10T11:26:23;18.40;99.90
24146;DHT22;12308;50.948;4.706;2023-05-10T11:28:52;18.60;99.90
24146;DHT22;12308;50.948;4.706;2023-05-10T11:31:19;18.80;99.90
24146;DHT22;12308;50.948;4.706;2023-05-10T11:33:50;18.80;99.90
24146;DHT22;12308;50.948;4.706;2023-05-10T11:36:22;19.00;99.90
24146;DHT22;12308;50.948;4.706;2023-05-10T11:38:48;19.20;99.90
24146;DHT22;12308;50.948;4.706;2023-05-10T11:41:16;18.90;99.90
24146;DHT22;12308;50.948;4.706;2023-05-10T11:43:43;19.10;99.90
24146;DHT22;12308;50.948;4.706;2023-05-10T11:46:12;18.90;99.90
24146;DHT22;12308;50.948;4.706;2023-05-10T11:48:41;19.10;99.90
24146;DHT22;12308;50.948;4.706;2023-05-10T11:51:09;19.60;99.90
24146;DHT22;12308;50.948;4.706;2023-05-10T11:53:34;19.80;99.90
24146;DHT22;12308;50.948;4.706;2023-05-10T11:56:10;20.00;99.90
24146;DHT22;12308;50.948;4.706;2023-05-10T11:58:38;19.80;99.90
24146;DHT22;12308;50.948;4.706;2023-05-10T12:01:05;19.90;99.90
24146;DHT22;12308;50.948;4.706;2023-05-10T12:03:32;19.50;99.90
24146;DHT22;12308;50.948;4.706;2023-05-10T12:05:58;19.20;99.90
24146;DHT22;12308;50.948;4.706;2023-05-10T12:08:26;19.60;99.90
24146;DHT22;12308;50.948;4.706;2023-05-10T12:10:53;19.80;99.90
24146;DHT22;12308;50.948;4.706;2023-05-10T12:13:20;19.60;99.90
24146;DHT22;12308;50.948;4.706;2023-05-10T12:15:46;19.30;99.90
24146;DHT22;12308;50.948;4.706;2023-05-10T12:18:13;19.60;99.90
24146;DHT22;12308;50.948;4.706;2023-05-10T12:20:40;19.40;99.90
24146;DHT22;12308;50.948;4.706;2023-05-10T12:23:08;19.60;99.90
24146;DHT22;12308;50.948;4.706;2023-05-10T12:25:36;19.50;99.90
24146;DHT22;12308;50.948;4.706;2023-05-10T12:28:07;19.20;99.90
24146;DHT22;12308;50.948;4.706;2023-05-10T12:30:34;19.60;99.90
24146;DHT22;12308;50.948;4.706;2023-05-10T12:33:02;19.70;99.90
24146;DHT22;12308;50.948;4.706;2023-05-10T12:35:31;20.10;99.90
24146;DHT22;12308;50.948;4.706;2023-05-10T12:37:57;20.30;99.90
24146;DHT22;12308;50.948;4.706;2023-05-10T12:40:23;20.50;99.90
24146;DHT22;12308;50.948;4.706;2023-05-10T12:42:49;20.50;99.90
24146;DHT22;12308;50.948;4.706;2023-05-10T12:45:15;20.50;99.90
24146;DHT22;12308;50.948;4.706;2023-05-10T12:47:42;20.40;99.90
24146;DHT22;12308;50.948;4.706;2023-05-10T12:50:08;20.60;99.90
24146;DHT22;12308;50.948;4.706;2023-05-10T12:52:34;20.40;99.90
24146;DHT22;12308;50.948;4.706;2023-05-10T12:55:00;20.30;99.90
24146;DHT22;12308;50.948;4.706;2023-05-10T12:57:27;20.40;99.90
24146;DHT22;12308;50.948;4.706;2023-05-10T12:59:54;19.90;99.90
24146;DHT22;12308;50.948;4.706;2023-05-10T13:02:20;20.00;99.90
24146;DHT22;12308;50.948;4.706;2023-05-10T13:04:46;20.10;99.90
24146;DHT22;12308;50.948;4.706;2023-05-10T13:07:12;20.20;99.90
24146;DHT22;12308;50.948;4.706;2023-05-10T13:09:39;19.80;99.90
24146;DHT22;12308;50.948;4.706;2023-05-10T13:12:05;20.20;99.90
24146;DHT22;12308;50.948;4.706;2023-05-10T13:14:31;20.60;99.90
24146;DHT22;12308;50.948;4.706;2023-05-10T13:16:57;21.00;99.90
24146;DHT22;12308;50.948;4.706;2023-05-10T13:19:22;21.10;99.90
24146;DHT22;12308;50.948;4.706;2023-05-10T13:21:48;21.10;99.90
24146;DHT22;12308;50.948;4.706;2023-05-10T13:24:14;21.20;99.90
24146;DHT22;12308;50.948;4.706;2023-05-10T13:26:40;21.40;99.90
24146;DHT22;12308;50.948;4.706;2023-05-10T13:29:06;21.30;99.90
24146;DHT22;12308;50.948;4.706;2023-05-10T13:31:32;21.00;99.90
24146;DHT22;12308;50.948;4.706;2023-05-10T13:33:58;20.70;99.90
24146;DHT22;12308;50.948;4.706;2023-05-10T13:36:24;20.70;99.90
24146;DHT22;12308;50.948;4.706;2023-05-10T13:38:49;20.70;99.90
24146;DHT22;12308;50.948;4.706;2023-05-10T13:41:15;20.80;99.90
24146;DHT22;12308;50.948;4.706;2023-05-10T13:43:41;20.90;99.90
24146;DHT22;12308;50.948;4.706;2023-05-10T13:46:06;21.00;99.90
24146;DHT22;12308;50.948;4.706;2023-05-10T13:48:32;20.80;99.90
24146;DHT22;12308;50.948;4.706;2023-05-10T13:50:58;20.20;99.90
24146;DHT22;12308;50.948;4.706;2023-05-10T13:53:23;19.90;99.90
24146;DHT22;12308;50.948;4.706;2023-05-10T13:55:49;19.90;99.90
24146;DHT22;12308;50.948;4.706;2023-05-10T13:58:15;20.00;99.90
24146;DHT22;12308;50.948;4.706;2023-05-10T14:00:40;20.20;99.90
24146;DHT22;12308;50.948;4.706;2023-05-10T14:03:06;20.20;99.90
24146;DHT22;12308;50.948;4.706;2023-05-10T14:05:34;20.00;99.90
24146;DHT22;12308;50.948;4.706;2023-05-10T14:08:00;20.20;99.90
24146;DHT22;12308;50.948;4.706;2023-05-10T14:10:25;20.20;99.90
24146;DHT22;12308;50.948;4.706;2023-05-10T14:12:51;20.00;99.90
24146;DHT22;12308;50.948;4.706;2023-05-10T14:15:17;19.80;99.90
24146;DHT22;12308;50.948;4.706;2023-05-10T14:17:42;19.50;99.90
24146;DHT22;12308;50.948;4.706;2023-05-10T14:20:08;19.30;99.90
24146;DHT22;12308;50.948;4.706;2023-05-10T14:22:34;18.90;99.90
24146;DHT22;12308;50.948;4.706;2023-05-10T14:25:00;19.10;99.90
24146;DHT22;12308;50.948;4.706;2023-05-10T14:27:26;19.40;99.90
24146;DHT22;12308;50.948;4.706;2023-05-10T14:29:52;19.40;99.90
24146;DHT22;12308;50.948;4.706;2023-05-10T14:32:18;19.40;99.90
24146;DHT22;12308;50.948;4.706;2023-05-10T14:34:44;19.50;99.90
24146;DHT22;12308;50.948;4.706;2023-05-10T14:37:11;19.60;99.90
24146;DHT22;12308;50.948;4.706;2023-05-10T14:39:37;19.90;99.90
24146;DHT22;12308;50.948;4.706;2023-05-10T14:42:03;19.90;99.90
24146;DHT22;12308;50.948;4.706;2023-05-10T14:44:29;20.00;99.90
24146;DHT22;12308;50.948;4.706;2023-05-10T14:46:55;20.00;99.90
24146;DHT22;12308;50.948;4.706;2023-05-10T14:49:22;20.20;99.90
24146;DHT22;12308;50.948;4.706;2023-05-10T14:51:48;19.80;99.90
24146;DHT22;12308;50.948;4.706;2023-05-10T14:54:14;19.70;99.90
24146;DHT22;12308;50.948;4.706;2023-05-10T14:56:40;19.70;99.90
24146;DHT22;12308;50.948;4.706;2023-05-10T14:59:07;19.60;99.90
24146;DHT22;12308;50.948;4.706;2023-05-10T15:01:33;19.20;99.90
24146;DHT22;12308;50.948;4.706;2023-05-10T15:04:00;18.90;99.90
24146;DHT22;12308;50.948;4.706;2023-05-10T15:06:33;19.00;99.90
24146;DHT22;12308;50.948;4.706;2023-05-10T15:09:00;19.20;99.90
24146;DHT22;12308;50.948;4.706;2023-05-10T15:11:26;19.40;99.90
24146;DHT22;12308;50.948;4.706;2023-05-10T15:13:52;19.20;99.90
24146;DHT22;12308;50.948;4.706;2023-05-10T15:16:18;19.30;99.90
24146;DHT22;12308;50.948;4.706;2023-05-10T15:18:44;18.90;99.90
24146;DHT22;12308;50.948;4.706;2023-05-10T15:21:10;18.90;99.90
24146;DHT22;12308;50.948;4.706;2023-05-10T15:23:36;18.80;99.90
24146;DHT22;12308;50.948;4.706;2023-05-10T15:26:01;18.70;99.90
24146;DHT22;12308;50.948;4.706;2023-05-10T15:28:28;18.60;99.90
24146;DHT22;12308;50.948;4.706;2023-05-10T15:30:54;18.50;99.90
24146;DHT22;12308;50.948;4.706;2023-05-10T15:33:20;18.30;99.90
24146;DHT22;12308;50.948;4.706;2023-05-10T15:35:46;18.40;99.90
24146;DHT22;12308;50.948;4.706;2023-05-10T15:38:11;18.60;99.90
24146;DHT22;12308;50.948;4.706;2023-05-10T15:40:37;18.20;99.90
24146;DHT22;12308;50.948;4.706;2023-05-10T15:43:03;17.90;99.90
24146;DHT22;12308;50.948;4.706;2023-05-10T15:45:30;17.80;99.90
24146;DHT22;12308;50.948;4.706;2023-05-10T15:47:56;17.70;99.90
24146;DHT22;12308;50.948;4.706;2023-05-10T15:50:22;17.60;99.90
24146;DHT22;12308;50.948;4.706;2023-05-10T15:52:47;17.50;99.90
24146;DHT22;12308;50.948;4.706;2023-05-10T15:55:14;17.30;99.90
24146;DHT22;12308;50.948;4.706;2023-05-10T15:57:40;17.10;99.90
24146;DHT22;12308;50.948;4.706;2023-05-10T16:00:07;17.00;99.90
24146;DHT22;12308;50.948;4.706;2023-05-10T16:02:34;16.80;99.90
24146;DHT22;12308;50.948;4.706;2023-05-10T16:04:59;17.00;99.90